sensor_id;sensor_type;location;lat;lon;timestamp;pressure;altitude;pressure_sealevel;temperature;humidity
23953;BME280;12163;49.316;6.092;2024-03-23T00:52:10;98744.66;;;12.00;71.93
23953;BME280;12163;49.316;6.092;2024-03-23T00:54:36;98736.84;;;11.98;72.64
23953;BME280;12163;49.316;6.092;2024-03-23T00:57:01;98737.47;;;11.95;73.11
23953;BME280;12163;49.316;6.092;2024-03-23T00:59:27;98740.78;;;11.92;72.83
23953;BME280;12163;49.316;6.092;2024-03-23T01:01:54;98747.31;;;11.91;73.88
23953;BME280;12163;49.316;6.092;2024-03-23T01:04:20;98731.72;;;11.88;74.08
23953;BME280;12163;49.316;6.092;2024-03-23T01:06:46;98740.31;;;11.90;73.41
23953;BME280;12163;49.316;6.092;2024-03-23T01:09:11;98736.66;;;11.86;73.62
23953;BME280;12163;49.316;6.092;2024-03-23T01:11:37;98726.78;;;11.82;74.01
23953;BME280;12163;49.316;6.092;2024-03-23T01:14:03;98737.91;;;11.80;75.29
23953;BME280;12163;49.316;6.092;2024-03-23T01:16:28;98724.03;;;11.73;75.37
23953;BME280;12163;49.316;6.092;2024-03-23T01:18:54;98719.88;;;11.68;75.36
23953;BME280;12163;49.316;6.092;2024-03-23T01:21:19;98721.28;;;11.65;76.52
23953;BME280;12163;49.316;6.092;2024-03-23T01:23:45;98726.69;;;11.65;76.77
23953;BME280;12163;49.316;6.092;2024-03-23T01:26:11;98726.34;;;11.58;77.63
23953;BME280;12163;49.316;6.092;2024-03-23T01:28:36;98733.75;;;11.53;77.56
23953;BME280;12163;49.316;6.092;2024-03-23T01:31:02;98744.53;;;11.44;76.49
23953;BME280;12163;49.316;6.092;2024-03-23T01:33:28;98730.50;;;11.34;76.63
23953;BME280;12163;49.316;6.092;2024-03-23T01:35:53;98742.66;;;11.23;75.78
23953;BME280;12163;49.316;6.092;2024-03-23T01:38:19;98736.91;;;11.16;74.39
23953;BME280;12163;49.316;6.092;2024-03-23T01:40:45;98741.91;;;11.09;73.30
23953;BME280;12163;49.316;6.092;2024-03-23T01:43:10;98738.66;;;10.98;72.20
23953;BME280;12163;49.316;6.092;2024-03-23T01:45:37;98742.44;;;10.89;70.86
23953;BME280;12163;49.316;6.092;2024-03-23T01:48:03;98755.38;;;10.78;70.01
23953;BME280;12163;49.316;6.092;2024-03-23T01:50:31;98756.47;;;10.64;69.36
23953;BME280;12163;49.316;6.092;2024-03-23T01:53:02;98764.13;;;10.48;69.87
23953;BME280;12163;49.316;6.092;2024-03-23T01:55:28;98758.75;;;10.35;70.91
23953;BME280;12163;49.316;6.092;2024-03-23T01:57:56;98755.81;;;10.23;71.42
23953;BME280;12163;49.316;6.092;2024-03-23T02:00:22;98759.91;;;10.07;72.11
23953;BME280;12163;49.316;6.092;2024-03-23T02:02:48;98761.16;;;9.96;72.89
23953;BME280;12163;49.316;6.092;2024-03-23T02:05:14;98768.84;;;9.89;73.15
23953;BME280;12163;49.316;6.092;2024-03-23T02:07:41;98765.66;;;9.87;73.86
23953;BME280;12163;49.316;6.092;2024-03-23T02:10:09;98772.16;;;9.86;74.10
23953;BME280;12163;49.316;6.092;2024-03-23T02:12:36;98772.44;;;9.85;74.47
23953;BME280;12163;49.316;6.092;2024-03-23T02:15:02;98778.63;;;9.85;74.95
23953;BME280;12163;49.316;6.092;2024-03-23T02:17:30;98776.81;;;9.81;74.84
23953;BME280;12163;49.316;6.092;2024-03-23T02:19:56;98768.44;;;9.82;75.05
23953;BME280;12163;49.316;6.092;2024-03-23T02:22:21;98782.41;;;9.84;75.47
23953;BME280;12163;49.316;6.092;2024-03-23T02:24:47;98781.59;;;9.84;75.34
23953;BME280;12163;49.316;6.092;2024-03-23T02:27:13;98781.94;;;9.82;75.19
23953;BME280;12163;49.316;6.092;2024-03-23T02:29:38;98782.53;;;9.79;75.24
23953;BME280;12163;49.316;6.092;2024-03-23T02:32:04;98788.19;;;9.78;75.24
23953;BME280;12163;49.316;6.092;2024-03-23T02:34:29;98783.91;;;9.77;75.28
23953;BME280;12163;49.316;6.092;2024-03-23T02:36:55;98780.94;;;9.78;75.21
23953;BME280;12163;49.316;6.092;2024-03-23T02:39:21;98787.91;;;9.79;75.41
23953;BME280;12163;49.316;6.092;2024-03-23T02:41:46;98785.50;;;9.78;75.12
23953;BME280;12163;49.316;6.092;2024-03-23T02:44:13;98789.50;;;9.80;75.80
23953;BME280;12163;49.316;6.092;2024-03-23T02:46:39;98793.97;;;9.85;75.52
23953;BME280;12163;49.316;6.092;2024-03-23T02:49:05;98808.28;;;9.85;75.37
23953;BME280;12163;49.316;6.092;2024-03-23T02:51:31;98787.00;;;9.84;75.68
23953;BME280;12163;49.316;6.092;2024-03-23T02:53:56;98803.16;;;9.84;75.69
23953;BME280;12163;49.316;6.092;2024-03-23T02:56:22;98791.88;;;9.82;75.28
23953;BME280;12163;49.316;6.092;2024-03-23T02:58:48;98806.19;;;9.82;75.05
23953;BME280;12163;49.316;6.092;2024-03-23T03:01:14;98803.25;;;9.79;75.62
23953;BME280;12163;49.316;6.092;2024-03-23T03:03:39;98810.34;;;9.75;76.05
23953;BME280;12163;49.316;6.092;2024-03-23T03:06:05;98808.44;;;9.75;76.42
23953;BME280;12163;49.316;6.092;2024-03-23T03:08:31;98795.06;;;9.70;77.01
23953;BME280;12163;49.316;6.092;2024-03-23T03:10:56;98785.78;;;9.63;77.14
23953;BME280;12163;49.316;6.092;2024-03-23T03:13:22;98784.41;;;9.65;77.86
23953;BME280;12163;49.316;6.092;2024-03-23T03:15:47;98782.78;;;9.64;78.00
23953;BME280;12163;49.316;6.092;2024-03-23T03:18:13;98789.50;;;9.67;77.71
23953;BME280;12163;49.316;6.092;2024-03-23T03:20:42;98791.00;;;9.73;78.05
23953;BME280;12163;49.316;6.092;2024-03-23T03:23:07;98804.16;;;9.74;78.94
23953;BME280;12163;49.316;6.092;2024-03-23T03:25:33;98802.56;;;9.73;79.07
23953;BME280;12163;49.316;6.092;2024-03-23T03:27:59;98804.97;;;9.75;79.61
23953;BME280;12163;49.316;6.092;2024-03-23T03:30:25;98804.16;;;9.74;80.06
23953;BME280;12163;49.316;6.092;2024-03-23T03:32:53;98803.59;;;9.77;79.79
23953;BME280;12163;49.316;6.092;2024-03-23T03:35:19;98807.56;;;9.80;80.33
23953;BME280;12163;49.316;6.092;2024-03-23T03:37:44;98814.34;;;9.77;80.16
23953;BME280;12163;49.316;6.092;2024-03-23T03:40:11;98816.53;;;9.75;80.04
23953;BME280;12163;49.316;6.092;2024-03-23T03:42:36;98812.81;;;9.71;80.57
23953;BME280;12163;49.316;6.092;2024-03-23T03:45:03;98824.09;;;9.73;81.04
23953;BME280;12163;49.316;6.092;2024-03-23T03:47:30;98817.72;;;9.69;80.45
23953;BME280;12163;49.316;6.092;2024-03-23T03:49:56;98821.50;;;9.68;81.20
23953;BME280;12163;49.316;6.092;2024-03-23T03:52:21;98828.09;;;9.62;80.59
23953;BME280;12163;49.316;6.092;2024-03-23T03:54:47;98824.69;;;9.57;79.96
23953;BME280;12163;49.316;6.092;2024-03-23T03:57:12;98856.38;;;9.46;79.30
23953;BME280;12163;49.316;6.092;2024-03-23T03:59:38;98824.81;;;9.33;79.03
23953;BME280;12163;49.316;6.092;2024-03-23T04:02:04;98837.34;;;9.24;78.74
23953;BME280;12163;49.316;6.092;2024-03-23T04:04:29;98831.03;;;9.15;78.54
23953;BME280;12163;49.316;6.092;2024-03-23T04:06:59;98839.19;;;9.10;78.68
23953;BME280;12163;49.316;6.092;2024-03-23T04:09:25;98839.84;;;9.02;78.32
23953;BME280;12163;49.316;6.092;2024-03-23T04:11:51;98828.56;;;9.00;78.30
23953;BME280;12163;49.316;6.092;2024-03-23T04:14:16;98825.66;;;8.97;77.87
23953;BME280;12163;49.316;6.092;2024-03-23T04:16:42;98838.91;;;8.93;77.91
23953;BME280;12163;49.316;6.092;2024-03-23T04:19:07;98837.31;;;8.92;77.80
23953;BME280;12163;49.316;6.092;2024-03-23T04:21:33;98837.88;;;8.89;78.38
23953;BME280;12163;49.316;6.092;2024-03-23T04:23:59;98838.97;;;8.88;78.69
23953;BME280;12163;49.316;6.092;2024-03-23T04:26:25;98849.75;;;8.88;77.55
23953;BME280;12163;49.316;6.092;2024-03-23T04:28:50;98868.84;;;8.87;77.61
23953;BME280;12163;49.316;6.092;2024-03-23T04:31:16;98878.78;;;8.86;78.20
23953;BME280;12163;49.316;6.092;2024-03-23T04:33:41;98880.19;;;8.84;78.00
23953;BME280;12163;49.316;6.092;2024-03-23T04:36:07;98881.56;;;8.81;77.87
23953;BME280;12163;49.316;6.092;2024-03-23T04:38:33;98885.41;;;8.75;76.13
23953;BME280;12163;49.316;6.092;2024-03-23T04:40:59;98883.31;;;8.72;75.75
23953;BME280;12163;49.316;6.092;2024-03-23T04:43:28;98887.44;;;8.65;75.37
23953;BME280;12163;49.316;6.092;2024-03-23T04:45:54;98898.53;;;8.58;75.44
23953;BME280;12163;49.316;6.092;2024-03-23T04:48:23;98896.44;;;8.55;74.37
23953;BME280;12163;49.316;6.092;2024-03-23T04:50:49;98910.22;;;8.49;74.37
23953;BME280;12163;49.316;6.092;2024-03-23T04:53:15;98906.25;;;8.41;74.39
23953;BME280;12163;49.316;6.092;2024-03-23T04:55:42;98913.88;;;8.34;74.73
23953;BME280;12163;49.316;6.092;2024-03-23T04:58:08;98930.34;;;8.28;74.07
23953;BME280;12163;49.316;6.092;2024-03-23T05:00:33;98916.19;;;8.23;74.51
23953;BME280;12163;49.316;6.092;2024-03-23T05:02:59;98933.38;;;8.17;74.83
23953;BME280;12163;49.316;6.092;2024-03-23T05:05:25;98932.34;;;8.13;75.30
23953;BME280;12163;49.316;6.092;2024-03-23T05:07:50;98944.25;;;8.07;75.64
23953;BME280;12163;49.316;6.092;2024-03-23T05:10:16;98944.00;;;8.03;76.26
23953;BME280;12163;49.316;6.092;2024-03-23T05:12:42;98949.38;;;8.03;75.99
23953;BME280;12163;49.316;6.092;2024-03-23T05:15:07;98953.91;;;8.08;76.21
23953;BME280;12163;49.316;6.092;2024-03-23T05:17:33;98953.38;;;8.06;76.35
23953;BME280;12163;49.316;6.092;2024-03-23T05:19:59;98966.78;;;8.11;75.98
23953;BME280;12163;49.316;6.092;2024-03-23T05:22:25;98945.28;;;8.11;75.74
23953;BME280;12163;49.316;6.092;2024-03-23T05:24:50;98952.00;;;8.08;75.98
23953;BME280;12163;49.316;6.092;2024-03-23T05:27:16;98953.09;;;8.07;75.75
23953;BME280;12163;49.316;6.092;2024-03-23T05:29:41;98947.19;;;8.05;75.37
23953;BME280;12163;49.316;6.092;2024-03-23T05:32:07;98947.78;;;8.02;75.83
23953;BME280;12163;49.316;6.092;2024-03-23T05:34:33;98950.19;;;8.04;76.00
23953;BME280;12163;49.316;6.092;2024-03-23T05:36:59;98963.31;;;8.05;75.85
23953;BME280;12163;49.316;6.092;2024-03-23T05:39:24;98961.44;;;8.06;75.48
23953;BME280;12163;49.316;6.092;2024-03-23T05:41:50;98961.44;;;8.06;75.77
23953;BME280;12163;49.316;6.092;2024-03-23T05:44:16;98958.72;;;8.11;76.13
23953;BME280;12163;49.316;6.092;2024-03-23T05:46:42;98967.28;;;8.13;76.16
23953;BME280;12163;49.316;6.092;2024-03-23T05:49:08;98975.56;;;8.21;75.99
23953;BME280;12163;49.316;6.092;2024-03-23T05:51:34;98976.94;;;8.70;77.73
23953;BME280;12163;49.316;6.092;2024-03-23T05:54:00;98981.00;;;9.10;76.40
23953;BME280;12163;49.316;6.092;2024-03-23T05:56:26;98976.53;;;9.24;75.39
23953;BME280;12163;49.316;6.092;2024-03-23T05:58:52;98993.47;;;9.24;73.90
23953;BME280;12163;49.316;6.092;2024-03-23T06:01:18;98991.53;;;9.06;74.48
23953;BME280;12163;49.316;6.092;2024-03-23T06:03:43;99010.97;;;9.03;75.70
23953;BME280;12163;49.316;6.092;2024-03-23T06:06:10;99012.88;;;9.03;75.62
23953;BME280;12163;49.316;6.092;2024-03-23T06:08:37;99009.66;;;9.01;75.16
23953;BME280;12163;49.316;6.092;2024-03-23T06:11:04;99011.03;;;9.40;76.38
23953;BME280;12163;49.316;6.092;2024-03-23T06:13:31;99008.72;;;9.71;73.43
23953;BME280;12163;49.316;6.092;2024-03-23T06:15:57;99012.56;;;9.46;72.53
23953;BME280;12163;49.316;6.092;2024-03-23T06:18:24;99006.94;;;9.43;72.57
23953;BME280;12163;49.316;6.092;2024-03-23T06:20:49;99007.00;;;9.19;71.96
23953;BME280;12163;49.316;6.092;2024-03-23T06:23:15;99014.00;;;8.97;72.73
23953;BME280;12163;49.316;6.092;2024-03-23T06:25:43;99012.88;;;8.79;73.16
23953;BME280;12163;49.316;6.092;2024-03-23T06:28:10;99033.44;;;8.65;73.70
23953;BME280;12163;49.316;6.092;2024-03-23T06:30:36;99036.78;;;8.57;73.93
23953;BME280;12163;49.316;6.092;2024-03-23T06:33:02;99058.34;;;8.52;74.67
23953;BME280;12163;49.316;6.092;2024-03-23T06:35:27;99077.72;;;8.49;75.31
23953;BME280;12163;49.316;6.092;2024-03-23T06:37:53;99085.34;;;8.37;75.62
23953;BME280;12163;49.316;6.092;2024-03-23T06:40:18;99091.41;;;8.15;74.77
23953;BME280;12163;49.316;6.092;2024-03-23T06:42:44;99105.09;;;7.80;74.32
23953;BME280;12163;49.316;6.092;2024-03-23T06:45:10;99120.84;;;7.43;76.43
23953;BME280;12163;49.316;6.092;2024-03-23T06:47:35;99124.78;;;6.92;76.51
23953;BME280;12163;49.316;6.092;2024-03-23T06:50:03;99113.81;;;6.49;77.84
23953;BME280;12163;49.316;6.092;2024-03-23T06:52:29;99111.69;;;6.21;78.80
23953;BME280;12163;49.316;6.092;2024-03-23T06:54:55;99095.34;;;6.07;79.05
23953;BME280;12163;49.316;6.092;2024-03-23T06:57:21;99101.50;;;5.98;79.23
23953;BME280;12163;49.316;6.092;2024-03-23T06:59:47;99107.09;;;5.91;79.45
23953;BME280;12163;49.316;6.092;2024-03-23T07:02:12;99108.72;;;5.92;78.57
23953;BME280;12163;49.316;6.092;2024-03-23T07:04:38;99103.88;;;5.94;78.75
23953;BME280;12163;49.316;6.092;2024-03-23T07:07:06;99082.47;;;5.99;78.93
23953;BME280;12163;49.316;6.092;2024-03-23T07:09:32;99084.88;;;6.01;78.66
23953;BME280;12163;49.316;6.092;2024-03-23T07:11:58;99111.13;;;6.04;79.34
23953;BME280;12163;49.316;6.092;2024-03-23T07:14:24;99103.91;;;6.09;79.39
23953;BME280;12163;49.316;6.092;2024-03-23T07:16:50;99124.03;;;6.12;79.46
23953;BME280;12163;49.316;6.092;2024-03-23T07:19:17;99118.66;;;6.22;79.73
23953;BME280;12163;49.316;6.092;2024-03-23T07:21:46;99129.09;;;6.38;79.43
23953;BME280;12163;49.316;6.092;2024-03-23T07:24:13;99122.94;;;6.48;79.69
23953;BME280;12163;49.316;6.092;2024-03-23T07:26:39;99117.84;;;6.51;79.26
23953;BME280;12163;49.316;6.092;2024-03-23T07:29:06;99124.28;;;6.55;78.60
23953;BME280;12163;49.316;6.092;2024-03-23T07:31:31;99131.53;;;6.60;78.02
23953;BME280;12163;49.316;6.092;2024-03-23T07:33:57;99136.06;;;6.59;78.36
23953;BME280;12163;49.316;6.092;2024-03-23T07:36:23;99129.63;;;6.60;78.11
23953;BME280;12163;49.316;6.092;2024-03-23T07:38:48;99135.81;;;6.65;78.29
23953;BME280;12163;49.316;6.092;2024-03-23T07:41:19;99139.31;;;6.66;77.88
23953;BME280;12163;49.316;6.092;2024-03-23T07:43:45;99133.41;;;6.69;77.97
23953;BME280;12163;49.316;6.092;2024-03-23T07:46:11;99135.53;;;6.72;78.02
23953;BME280;12163;49.316;6.092;2024-03-23T07:48:38;99139.03;;;6.77;78.37
23953;BME280;12163;49.316;6.092;2024-03-23T07:51:13;99139.78;;;6.88;78.21
23953;BME280;12163;49.316;6.092;2024-03-23T07:53:38;99137.63;;;7.00;78.21
23953;BME280;12163;49.316;6.092;2024-03-23T07:56:08;99139.19;;;7.16;78.51
23953;BME280;12163;49.316;6.092;2024-03-23T07:58:34;99139.13;;;7.31;77.86
23953;BME280;12163;49.316;6.092;2024-03-23T08:01:13;99125.97;;;7.39;77.98
23953;BME280;12163;49.316;6.092;2024-03-23T08:03:43;99127.78;;;7.54;77.72
23953;BME280;12163;49.316;6.092;2024-03-23T08:08:39;99128.97;;;7.81;77.49
23953;BME280;12163;49.316;6.092;2024-03-23T08:11:05;99132.41;;;7.92;77.32
23953;BME280;12163;49.316;6.092;2024-03-23T08:13:32;99136.38;;;8.04;76.80
23953;BME280;12163;49.316;6.092;2024-03-23T08:16:02;99150.00;;;8.18;76.70
23953;BME280;12163;49.316;6.092;2024-03-23T08:18:29;99145.16;;;8.25;75.72
23953;BME280;12163;49.316;6.092;2024-03-23T08:21:01;99164.41;;;8.36;75.35
23953;BME280;12163;49.316;6.092;2024-03-23T08:23:28;99158.41;;;8.49;74.77
23953;BME280;12163;49.316;6.092;2024-03-23T08:25:58;99157.22;;;8.60;74.54
23953;BME280;12163;49.316;6.092;2024-03-23T08:28:24;99157.72;;;8.67;74.55
23953;BME280;12163;49.316;6.092;2024-03-23T08:30:50;99155.25;;;8.71;74.05
23953;BME280;12163;49.316;6.092;2024-03-23T08:33:16;99151.66;;;8.80;73.56
23953;BME280;12163;49.316;6.092;2024-03-23T08:35:41;99158.56;;;8.91;73.48
23953;BME280;12163;49.316;6.092;2024-03-23T08:38:07;99164.94;;;9.00;73.04
23953;BME280;12163;49.316;6.092;2024-03-23T08:40:33;99153.03;;;9.06;71.69
23953;BME280;12163;49.316;6.092;2024-03-23T08:42:58;99168.78;;;9.18;70.85
23953;BME280;12163;49.316;6.092;2024-03-23T08:45:25;99164.91;;;9.29;70.98
23953;BME280;12163;49.316;6.092;2024-03-23T08:47:51;99171.16;;;9.48;71.02
23953;BME280;12163;49.316;6.092;2024-03-23T08:50:17;99165.38;;;9.59;69.80
23953;BME280;12163;49.316;6.092;2024-03-23T08:52:43;99159.47;;;9.57;69.15
23953;BME280;12163;49.316;6.092;2024-03-23T08:55:09;99156.72;;;9.62;68.36
23953;BME280;12163;49.316;6.092;2024-03-23T08:57:35;99164.06;;;9.75;68.30
23953;BME280;12163;49.316;6.092;2024-03-23T09:00:02;99154.72;;;9.91;68.38
23953;BME280;12163;49.316;6.092;2024-03-23T09:02:28;99156.16;;;10.07;67.86
23953;BME280;12163;49.316;6.092;2024-03-23T09:04:53;99143.47;;;10.07;66.80
23953;BME280;12163;49.316;6.092;2024-03-23T09:07:19;99148.56;;;10.09;66.54
23953;BME280;12163;49.316;6.092;2024-03-23T09:09:44;99166.41;;;10.05;66.82
23953;BME280;12163;49.316;6.092;2024-03-23T09:12:10;99167.59;;;9.94;65.67
23953;BME280;12163;49.316;6.092;2024-03-23T09:14:35;99150.50;;;9.85;65.06
23953;BME280;12163;49.316;6.092;2024-03-23T09:17:01;99158.25;;;9.87;65.53
23953;BME280;12163;49.316;6.092;2024-03-23T09:19:28;99162.72;;;9.96;65.39
23953;BME280;12163;49.316;6.092;2024-03-23T09:21:54;99147.13;;;10.16;64.90
23953;BME280;12163;49.316;6.092;2024-03-23T09:24:20;99142.22;;;10.37;63.98
23953;BME280;12163;49.316;6.092;2024-03-23T09:26:46;99146.88;;;10.50;64.13
23953;BME280;12163;49.316;6.092;2024-03-23T09:29:12;99149.47;;;10.55;62.04
23953;BME280;12163;49.316;6.092;2024-03-23T09:31:40;99152.47;;;10.53;61.56
23953;BME280;12163;49.316;6.092;2024-03-23T09:34:06;99143.06;;;10.51;59.83
23953;BME280;12163;49.316;6.092;2024-03-23T09:36:31;99138.88;;;10.45;58.49
23953;BME280;12163;49.316;6.092;2024-03-23T09:38:57;99127.69;;;10.51;59.84
23953;BME280;12163;49.316;6.092;2024-03-23T09:41:23;99131.00;;;10.62;58.65
23953;BME280;12163;49.316;6.092;2024-03-23T09:43:52;99132.56;;;10.68;58.55
23953;BME280;12163;49.316;6.092;2024-03-23T09:46:18;99126.13;;;10.64;55.17
23953;BME280;12163;49.316;6.092;2024-03-23T09:48:46;99129.91;;;10.63;56.51
23953;BME280;12163;49.316;6.092;2024-03-23T09:51:12;99124.50;;;10.63;54.66
23953;BME280;12163;49.316;6.092;2024-03-23T09:53:38;99136.50;;;10.57;53.59
23953;BME280;12163;49.316;6.092;2024-03-23T09:56:04;99128.72;;;10.55;53.92
23953;BME280;12163;49.316;6.092;2024-03-23T09:58:30;99126.94;;;10.64;53.13
23953;BME280;12163;49.316;6.092;2024-03-23T10:00:58;99120.97;;;10.81;53.54
23953;BME280;12163;49.316;6.092;2024-03-23T10:03:23;99124.88;;;10.88;53.94
23953;BME280;12163;49.316;6.092;2024-03-23T10:06:00;99124.16;;;10.83;54.40
23953;BME280;12163;49.316;6.092;2024-03-23T10:08:28;99150.75;;;10.76;54.91
23953;BME280;12163;49.316;6.092;2024-03-23T10:10:54;99158.16;;;10.52;56.26
23953;BME280;12163;49.316;6.092;2024-03-23T10:13:27;99146.53;;;10.01;57.75
23953;BME280;12163;49.316;6.092;2024-03-23T10:15:58;99180.97;;;9.62;59.45
23953;BME280;12163;49.316;6.092;2024-03-23T10:18:25;99184.47;;;9.39;61.34
23953;BME280;12163;49.316;6.092;2024-03-23T10:21:06;99171.53;;;9.13;62.24
23953;BME280;12163;49.316;6.092;2024-03-23T10:23:35;99177.78;;;8.80;63.82
23953;BME280;12163;49.316;6.092;2024-03-23T10:26:24;99218.69;;;8.43;64.29
23953;BME280;12163;49.316;6.092;2024-03-23T10:28:58;99248.47;;;7.89;66.48
23953;BME280;12163;49.316;6.092;2024-03-23T10:31:30;99293.75;;;7.17;69.04
23953;BME280;12163;49.316;6.092;2024-03-23T10:33:56;99213.81;;;6.44;71.25
23953;BME280;12163;49.316;6.092;2024-03-23T10:36:22;99202.47;;;6.07;72.90
23953;BME280;12163;49.316;6.092;2024-03-23T10:38:50;99208.31;;;5.94;74.52
23953;BME280;12163;49.316;6.092;2024-03-23T10:41:16;99196.59;;;6.00;75.55
23953;BME280;12163;49.316;6.092;2024-03-23T10:43:43;99188.03;;;6.18;75.99
23953;BME280;12163;49.316;6.092;2024-03-23T10:46:10;99188.06;;;6.38;76.14
23953;BME280;12163;49.316;6.092;2024-03-23T10:48:35;99187.81;;;6.64;77.04
23953;BME280;12163;49.316;6.092;2024-03-23T10:51:01;99176.53;;;6.92;76.72
23953;BME280;12163;49.316;6.092;2024-03-23T10:53:28;99170.03;;;7.23;76.41
23953;BME280;12163;49.316;6.092;2024-03-23T10:55:55;99167.50;;;7.52;73.92
23953;BME280;12163;49.316;6.092;2024-03-23T10:58:26;99177.84;;;7.88;74.13
23953;BME280;12163;49.316;6.092;2024-03-23T11:00:53;99160.97;;;8.26;71.77
23953;BME280;12163;49.316;6.092;2024-03-23T11:03:36;99158.81;;;8.66;70.03
23953;BME280;12163;49.316;6.092;2024-03-23T11:06:03;99159.50;;;9.05;69.82
23953;BME280;12163;49.316;6.092;2024-03-23T11:13:43;99211.19;;;8.35;66.00
23953;BME280;12163;49.316;6.092;2024-03-23T11:16:27;99205.94;;;7.42;67.71
23953;BME280;12163;49.316;6.092;2024-03-23T11:22:01;99216.13;;;6.06;72.88
23953;BME280;12163;49.316;6.092;2024-03-23T11:24:27;99215.81;;;5.92;74.68
23953;BME280;12163;49.316;6.092;2024-03-23T11:26:53;99192.25;;;5.94;75.33
23953;BME280;12163;49.316;6.092;2024-03-23T11:29:18;99176.22;;;6.04;76.18
23953;BME280;12163;49.316;6.092;2024-03-23T11:31:51;99181.06;;;6.17;76.58
23953;BME280;12163;49.316;6.092;2024-03-23T11:34:18;99183.78;;;6.42;76.04
23953;BME280;12163;49.316;6.092;2024-03-23T11:36:44;99162.06;;;6.68;74.92
23953;BME280;12163;49.316;6.092;2024-03-23T11:39:17;99152.66;;;7.01;75.43
23953;BME280;12163;49.316;6.092;2024-03-23T11:41:49;99142.31;;;7.43;73.90
23953;BME280;12163;49.316;6.092;2024-03-23T11:44:20;99168.97;;;7.88;73.18
23953;BME280;12163;49.316;6.092;2024-03-23T11:46:47;99149.44;;;8.21;70.78
23953;BME280;12163;49.316;6.092;2024-03-23T11:49:23;99152.34;;;8.62;69.06
23953;BME280;12163;49.316;6.092;2024-03-23T11:51:48;99182.41;;;9.03;67.86
23953;BME280;12163;49.316;6.092;2024-03-23T11:54:14;99188.69;;;8.93;64.95
23953;BME280;12163;49.316;6.092;2024-03-23T11:56:39;99187.88;;;8.59;64.30
23953;BME280;12163;49.316;6.092;2024-03-23T11:59:06;99182.78;;;8.15;64.92
23953;BME280;12163;49.316;6.092;2024-03-23T12:01:31;99183.22;;;7.88;66.83
23953;BME280;12163;49.316;6.092;2024-03-23T12:03:57;99158.28;;;7.73;67.25
23953;BME280;12163;49.316;6.092;2024-03-23T12:06:22;99162.13;;;7.62;66.67
23953;BME280;12163;49.316;6.092;2024-03-23T12:08:48;99154.09;;;7.57;67.84
23953;BME280;12163;49.316;6.092;2024-03-23T12:11:15;99144.91;;;7.68;68.22
23953;BME280;12163;49.316;6.092;2024-03-23T12:13:42;99125.22;;;7.82;68.09
23953;BME280;12163;49.316;6.092;2024-03-23T12:16:18;99124.56;;;8.00;68.10
23953;BME280;12163;49.316;6.092;2024-03-23T12:18:48;99112.63;;;8.21;67.44
23953;BME280;12163;49.316;6.092;2024-03-23T12:21:14;99103.59;;;8.45;67.16
23953;BME280;12163;49.316;6.092;2024-03-23T12:23:40;99083.91;;;8.78;67.14
23953;BME280;12163;49.316;6.092;2024-03-23T12:26:06;99078.94;;;9.14;66.49
23953;BME280;12163;49.316;6.092;2024-03-23T12:28:32;99085.69;;;9.35;63.58
23953;BME280;12163;49.316;6.092;2024-03-23T12:30:57;99073.84;;;9.54;63.00
23953;BME280;12163;49.316;6.092;2024-03-23T12:33:23;99070.00;;;9.79;60.85
23953;BME280;12163;49.316;6.092;2024-03-23T12:35:49;99060.09;;;9.93;61.11
23953;BME280;12163;49.316;6.092;2024-03-23T12:38:15;99059.97;;;10.21;61.69
23953;BME280;12163;49.316;6.092;2024-03-23T12:40:40;99056.75;;;10.51;58.26
23953;BME280;12163;49.316;6.092;2024-03-23T12:43:06;99031.81;;;10.86;57.12
23953;BME280;12163;49.316;6.092;2024-03-23T12:45:33;99025.22;;;11.19;55.27
23953;BME280;12163;49.316;6.092;2024-03-23T12:47:58;99008.47;;;11.44;50.96
23953;BME280;12163;49.316;6.092;2024-03-23T12:50:24;99015.59;;;11.40;50.25
23953;BME280;12163;49.316;6.092;2024-03-23T12:52:49;99034.63;;;11.21;48.90
23953;BME280;12163;49.316;6.092;2024-03-23T12:55:14;99038.84;;;11.00;50.21
23953;BME280;12163;49.316;6.092;2024-03-23T12:57:40;99040.31;;;10.79;51.91
23953;BME280;12163;49.316;6.092;2024-03-23T13:00:06;99077.13;;;10.57;54.32
23953;BME280;12163;49.316;6.092;2024-03-23T13:02:31;99099.63;;;9.18;62.18
23953;BME280;12163;49.316;6.092;2024-03-23T13:05:00;99125.56;;;8.09;67.13
23953;BME280;12163;49.316;6.092;2024-03-23T13:07:25;99146.66;;;7.29;71.24
23953;BME280;12163;49.316;6.092;2024-03-23T13:09:51;99201.22;;;6.79;74.58
23953;BME280;12163;49.316;6.092;2024-03-23T13:12:17;99127.78;;;6.41;74.93
23953;BME280;12163;49.316;6.092;2024-03-23T13:14:44;99124.28;;;6.25;76.07
23953;BME280;12163;49.316;6.092;2024-03-23T13:17:09;99130.44;;;6.26;76.76
23953;BME280;12163;49.316;6.092;2024-03-23T13:19:35;99110.38;;;6.23;76.85
23953;BME280;12163;49.316;6.092;2024-03-23T13:22:00;99089.97;;;6.17;77.49
23953;BME280;12163;49.316;6.092;2024-03-23T13:24:26;99085.69;;;6.36;78.32
23953;BME280;12163;49.316;6.092;2024-03-23T13:26:53;99077.38;;;6.63;77.96
23953;BME280;12163;49.316;6.092;2024-03-23T13:29:19;99074.34;;;6.94;76.67
23953;BME280;12163;49.316;6.092;2024-03-23T13:31:45;99070.81;;;7.08;75.53
23953;BME280;12163;49.316;6.092;2024-03-23T13:34:11;99056.16;;;7.39;75.83
23953;BME280;12163;49.316;6.092;2024-03-23T13:36:36;99054.38;;;7.73;74.30
23953;BME280;12163;49.316;6.092;2024-03-23T13:39:02;99050.03;;;8.16;72.62
23953;BME280;12163;49.316;6.092;2024-03-23T13:41:33;99043.69;;;8.63;69.62
23953;BME280;12163;49.316;6.092;2024-03-23T13:43:58;99033.00;;;9.05;67.75
23953;BME280;12163;49.316;6.092;2024-03-23T13:46:24;99028.72;;;9.46;65.15
23953;BME280;12163;49.316;6.092;2024-03-23T13:48:49;99005.63;;;9.96;65.55
23953;BME280;12163;49.316;6.092;2024-03-23T13:51:14;99018.50;;;10.49;62.35
23953;BME280;12163;49.316;6.092;2024-03-23T13:53:40;99002.66;;;10.88;58.64
23953;BME280;12163;49.316;6.092;2024-03-23T13:56:05;98993.78;;;11.36;59.37
23953;BME280;12163;49.316;6.092;2024-03-23T13:58:31;98990.22;;;11.98;57.79
23953;BME280;12163;49.316;6.092;2024-03-23T14:00:57;98995.88;;;12.32;55.04
23953;BME280;12163;49.316;6.092;2024-03-23T14:03:23;98999.66;;;12.61;54.56
23953;BME280;12163;49.316;6.092;2024-03-23T14:05:48;99007.91;;;12.56;53.56